sensor_id;sensor_type;location;lat;lon;timestamp;pressure;altitude;pressure_sealevel;temperature;humidity
8699;BME280;4386;51.236;6.742;2023-02-15T00:00:15;102514.22;;;6.76;72.00
8699;BME280;4386;51.236;6.742;2023-02-15T00:01:20;102506.31;;;6.76;72.09
8699;BME280;4386;51.236;6.742;2023-02-15T00:02:23;102505.44;;;6.76;72.20
8699;BME280;4386;51.236;6.742;2023-02-15T00:03:26;102508.97;;;6.75;72.45
8699;BME280;4386;51.236;6.742;2023-02-15T00:04:29;102509.84;;;6.75;72.13
8699;BME280;4386;51.236;6.742;2023-02-15T00:06:07;102497.56;;;6.74;71.95
8699;BME280;4386;51.236;6.742;2023-02-15T00:07:20;102511.69;;;6.73;71.98
8699;BME280;4386;51.236;6.742;2023-02-15T00:08:22;102504.66;;;6.72;72.01
8699;BME280;4386;51.236;6.742;2023-02-15T00:09:25;102507.31;;;6.72;72.33
8699;BME280;4386;51.236;6.742;2023-02-15T00:10:26;102497.75;;;6.70;72.56
8699;BME280;4386;51.236;6.742;2023-02-15T00:11:29;102499.50;;;6.69;72.29
8699;BME280;4386;51.236;6.742;2023-02-15T00:12:45;102496.91;;;6.68;72.39
8699;BME280;4386;51.236;6.742;2023-02-15T00:13:57;102489.94;;;6.67;72.52
8699;BME280;4386;51.236;6.742;2023-02-15T00:15:11;102495.22;;;6.67;72.35
8699;BME280;4386;51.236;6.742;2023-02-15T00:16:14;102492.63;;;6.65;72.50
8699;BME280;4386;51.236;6.742;2023-02-15T00:17:16;102505.00;;;6.63;72.62
8699;BME280;4386;51.236;6.742;2023-02-15T00:18:20;102497.09;;;6.63;72.18
8699;BME280;4386;51.236;6.742;2023-02-15T00:19:21;102491.91;;;6.60;72.69
8699;BME280;4386;51.236;6.742;2023-02-15T00:20:24;102494.56;;;6.60;72.31
8699;BME280;4386;51.236;6.742;2023-02-15T00:21:26;102496.31;;;6.60;72.26
8699;BME280;4386;51.236;6.742;2023-02-15T00:22:28;102503.34;;;6.59;72.42
8699;BME280;4386;51.236;6.742;2023-02-15T00:23:31;102499.84;;;6.59;72.30
8699;BME280;4386;51.236;6.742;2023-02-15T00:24:33;102505.19;;;6.57;72.75
8699;BME280;4386;51.236;6.742;2023-02-15T00:25:35;102499.94;;;6.57;72.63
8699;BME280;4386;51.236;6.742;2023-02-15T00:26:39;102495.56;;;6.56;72.78
8699;BME280;4386;51.236;6.742;2023-02-15T00:27:42;102496.44;;;6.57;72.73
8699;BME280;4386;51.236;6.742;2023-02-15T00:28:43;102494.69;;;6.56;72.64
8699;BME280;4386;51.236;6.742;2023-02-15T00:29:46;102495.59;;;6.55;72.68
8699;BME280;4386;51.236;6.742;2023-02-15T00:30:52;102489.50;;;6.54;72.41
8699;BME280;4386;51.236;6.742;2023-02-15T00:31:55;102484.22;;;6.54;72.54
8699;BME280;4386;51.236;6.742;2023-02-15T00:32:57;102482.50;;;6.53;72.75
8699;BME280;4386;51.236;6.742;2023-02-15T00:34:02;102487.75;;;6.53;72.90
8699;BME280;4386;51.236;6.742;2023-02-15T00:35:05;102479.03;;;6.51;72.44
8699;BME280;4386;51.236;6.742;2023-02-15T00:36:19;102486.09;;;6.51;72.41
8699;BME280;4386;51.236;6.742;2023-02-15T00:37:21;102486.13;;;6.49;72.70
8699;BME280;4386;51.236;6.742;2023-02-15T00:38:25;102482.69;;;6.47;72.60
8699;BME280;4386;51.236;6.742;2023-02-15T00:39:27;102484.47;;;6.47;72.78
8699;BME280;4386;51.236;6.742;2023-02-15T00:40:30;102484.47;;;6.47;72.85
8699;BME280;4386;51.236;6.742;2023-02-15T00:41:32;102483.59;;;6.46;72.67
8699;BME280;4386;51.236;6.742;2023-02-15T00:42:35;102476.59;;;6.45;72.49
8699;BME280;4386;51.236;6.742;2023-02-15T00:43:36;102487.13;;;6.45;72.62
8699;BME280;4386;51.236;6.742;2023-02-15T00:44:45;102479.22;;;6.45;72.61
8699;BME280;4386;51.236;6.742;2023-02-15T00:45:46;102483.69;;;6.43;72.57
8699;BME280;4386;51.236;6.742;2023-02-15T00:46:51;102480.19;;;6.43;72.75
8699;BME280;4386;51.236;6.742;2023-02-15T00:47:52;102481.09;;;6.42;72.58
8699;BME280;4386;51.236;6.742;2023-02-15T00:48:55;102478.47;;;6.42;72.64
8699;BME280;4386;51.236;6.742;2023-02-15T00:49:56;102476.78;;;6.41;72.85
8699;BME280;4386;51.236;6.742;2023-02-15T00:51:00;102474.19;;;6.39;73.09
8699;BME280;4386;51.236;6.742;2023-02-15T00:52:02;102481.19;;;6.40;72.68
8699;BME280;4386;51.236;6.742;2023-02-15T00:53:04;102482.06;;;6.39;73.03
8699;BME280;4386;51.236;6.742;2023-02-15T00:54:09;102481.19;;;6.40;72.87
8699;BME280;4386;51.236;6.742;2023-02-15T00:55:11;102473.31;;;6.39;73.00
8699;BME280;4386;51.236;6.742;2023-02-15T00:56:13;102478.63;;;6.37;73.08
8699;BME280;4386;51.236;6.742;2023-02-15T00:57:18;102468.09;;;6.37;72.94
8699;BME280;4386;51.236;6.742;2023-02-15T00:58:20;102488.34;;;6.35;72.85
8699;BME280;4386;51.236;6.742;2023-02-15T00:59:23;102464.59;;;6.37;72.90
8699;BME280;4386;51.236;6.742;2023-02-15T01:00:25;102474.28;;;6.36;73.06
8699;BME280;4386;51.236;6.742;2023-02-15T01:01:29;102475.19;;;6.35;72.78
8699;BME280;4386;51.236;6.742;2023-02-15T01:02:32;102470.84;;;6.34;72.80
8699;BME280;4386;51.236;6.742;2023-02-15T01:03:35;102476.09;;;6.34;73.01
8699;BME280;4386;51.236;6.742;2023-02-15T01:04:40;102474.38;;;6.33;73.00
8699;BME280;4386;51.236;6.742;2023-02-15T01:05:43;102472.66;;;6.32;73.17
8699;BME280;4386;51.236;6.742;2023-02-15T01:06:45;102475.34;;;6.31;73.18
8699;BME280;4386;51.236;6.742;2023-02-15T01:07:48;102470.06;;;6.31;73.17
8699;BME280;4386;51.236;6.742;2023-02-15T01:08:51;102477.03;;;6.32;73.28
8699;BME280;4386;51.236;6.742;2023-02-15T01:09:54;102478.00;;;6.29;72.98
8699;BME280;4386;51.236;6.742;2023-02-15T01:10:56;102476.25;;;6.29;72.77
8699;BME280;4386;51.236;6.742;2023-02-15T01:11:59;102483.28;;;6.29;73.19
8699;BME280;4386;51.236;6.742;2023-02-15T01:13:00;102483.28;;;6.29;73.12
8699;BME280;4386;51.236;6.742;2023-02-15T01:14:03;102476.31;;;6.28;73.23
8699;BME280;4386;51.236;6.742;2023-02-15T01:15:07;102480.72;;;6.27;73.32
8699;BME280;4386;51.236;6.742;2023-02-15T01:16:09;102471.03;;;6.28;73.14
8699;BME280;4386;51.236;6.742;2023-02-15T01:17:13;102478.09;;;6.26;73.42
8699;BME280;4386;51.236;6.742;2023-02-15T01:18:17;102477.25;;;6.25;73.31
8699;BME280;4386;51.236;6.742;2023-02-15T01:19:19;102479.88;;;6.25;73.06
8699;BME280;4386;51.236;6.742;2023-02-15T01:20:23;102466.72;;;6.25;72.94
8699;BME280;4386;51.236;6.742;2023-02-15T01:21:25;102474.69;;;6.24;73.17
8699;BME280;4386;51.236;6.742;2023-02-15T01:22:28;102478.19;;;6.24;73.20
8699;BME280;4386;51.236;6.742;2023-02-15T01:23:29;102475.53;;;6.24;73.29
8699;BME280;4386;51.236;6.742;2023-02-15T01:24:32;102469.41;;;6.24;73.09
8699;BME280;4386;51.236;6.742;2023-02-15T01:25:34;102462.41;;;6.23;72.97
8699;BME280;4386;51.236;6.742;2023-02-15T01:26:47;102461.63;;;6.21;73.10
8699;BME280;4386;51.236;6.742;2023-02-15T01:27:49;102473.00;;;6.21;73.11
8699;BME280;4386;51.236;6.742;2023-02-15T01:29:02;102465.16;;;6.20;73.28
8699;BME280;4386;51.236;6.742;2023-02-15T01:30:15;102463.38;;;6.20;73.01
8699;BME280;4386;51.236;6.742;2023-02-15T01:31:19;102467.81;;;6.18;73.42
8699;BME280;4386;51.236;6.742;2023-02-15T01:32:22;102466.13;;;6.17;73.27
8699;BME280;4386;51.236;6.742;2023-02-15T01:33:26;102473.16;;;6.17;73.25
8699;BME280;4386;51.236;6.742;2023-02-15T01:34:29;102473.16;;;6.17;73.41
8699;BME280;4386;51.236;6.742;2023-02-15T01:35:31;102471.41;;;6.16;73.21
8699;BME280;4386;51.236;6.742;2023-02-15T01:36:44;102467.88;;;6.17;73.21
8699;BME280;4386;51.236;6.742;2023-02-15T01:37:46;102471.41;;;6.16;73.11
8699;BME280;4386;51.236;6.742;2023-02-15T01:38:49;102467.09;;;6.15;73.17
8699;BME280;4386;51.236;6.742;2023-02-15T01:39:50;102473.25;;;6.14;73.28
8699;BME280;4386;51.236;6.742;2023-02-15T01:40:54;102471.47;;;6.14;73.20
8699;BME280;4386;51.236;6.742;2023-02-15T01:42:21;102464.44;;;6.15;73.45
8699;BME280;4386;51.236;6.742;2023-02-15T01:43:39;102461.84;;;6.13;73.46
8699;BME280;4386;51.236;6.742;2023-02-15T01:44:49;102470.66;;;6.12;73.18
8699;BME280;4386;51.236;6.742;2023-02-15T01:45:52;102460.97;;;6.13;73.60
8699;BME280;4386;51.236;6.742;2023-02-15T01:46:54;102461.06;;;6.11;73.32
8699;BME280;4386;51.236;6.742;2023-02-15T01:47:59;102461.09;;;6.10;73.34
8699;BME280;4386;51.236;6.742;2023-02-15T01:49:08;102464.59;;;6.10;73.15
8699;BME280;4386;51.236;6.742;2023-02-15T01:50:16;102465.47;;;6.09;73.18
8699;BME280;4386;51.236;6.742;2023-02-15T01:51:22;102459.34;;;6.09;73.42
8699;BME280;4386;51.236;6.742;2023-02-15T01:52:26;102453.28;;;6.07;73.36
8699;BME280;4386;51.236;6.742;2023-02-15T01:53:31;102452.38;;;6.08;73.42
8699;BME280;4386;51.236;6.742;2023-02-15T01:54:38;102455.03;;;6.08;73.44
8699;BME280;4386;51.236;6.742;2023-02-15T01:55:47;102448.03;;;6.07;73.61
8699;BME280;4386;51.236;6.742;2023-02-15T01:56:50;102454.19;;;6.06;73.52
8699;BME280;4386;51.236;6.742;2023-02-15T01:57:52;102447.22;;;6.05;73.35
8699;BME280;4386;51.236;6.742;2023-02-15T01:58:56;102448.91;;;6.06;73.52
8699;BME280;4386;51.236;6.742;2023-02-15T02:00:05;102446.34;;;6.04;73.76
8699;BME280;4386;51.236;6.742;2023-02-15T02:01:22;102444.63;;;6.03;73.64
8699;BME280;4386;51.236;6.742;2023-02-15T02:02:27;102449.03;;;6.03;73.70
8699;BME280;4386;51.236;6.742;2023-02-15T02:03:38;102443.75;;;6.03;73.58
8699;BME280;4386;51.236;6.742;2023-02-15T02:04:48;102436.78;;;6.02;73.61
8699;BME280;4386;51.236;6.742;2023-02-15T02:05:51;102440.31;;;6.01;73.70
8699;BME280;4386;51.236;6.742;2023-02-15T02:06:54;102442.06;;;6.02;73.51
8699;BME280;4386;51.236;6.742;2023-02-15T02:07:58;102442.09;;;6.00;73.76
8699;BME280;4386;51.236;6.742;2023-02-15T02:09:02;102442.09;;;6.00;73.94
8699;BME280;4386;51.236;6.742;2023-02-15T02:10:06;102438.59;;;6.00;73.83
8699;BME280;4386;51.236;6.742;2023-02-15T02:11:12;102436.84;;;6.00;73.90
8699;BME280;4386;51.236;6.742;2023-02-15T02:12:15;102426.38;;;5.99;73.57
8699;BME280;4386;51.236;6.742;2023-02-15T02:13:17;102436.91;;;5.99;73.94
8699;BME280;4386;51.236;6.742;2023-02-15T02:14:22;102426.38;;;5.99;73.79
8699;BME280;4386;51.236;6.742;2023-02-15T02:15:31;102424.63;;;5.98;73.81
8699;BME280;4386;51.236;6.742;2023-02-15T02:16:41;102431.69;;;5.96;73.68
8699;BME280;4386;51.236;6.742;2023-02-15T02:17:58;102430.03;;;5.93;73.64
8699;BME280;4386;51.236;6.742;2023-02-15T02:19:32;102423.91;;;5.93;73.78
8699;BME280;4386;51.236;6.742;2023-02-15T02:21:02;102424.84;;;5.92;73.83
8699;BME280;4386;51.236;6.742;2023-02-15T02:24:20;102424.94;;;5.89;73.73
8699;BME280;4386;51.236;6.742;2023-02-15T02:25:57;102423.22;;;5.86;74.07
8699;BME280;4386;51.236;6.742;2023-02-15T02:27:19;102423.25;;;5.85;73.99
8699;BME280;4386;51.236;6.742;2023-02-15T02:28:43;102425.06;;;5.83;73.95
8699;BME280;4386;51.236;6.742;2023-02-15T02:31:44;102416.38;;;5.81;74.19
8699;BME280;4386;51.236;6.742;2023-02-15T02:33:27;102407.69;;;5.78;74.11
8699;BME280;4386;51.236;6.742;2023-02-15T02:34:36;102412.06;;;5.78;74.10
8699;BME280;4386;51.236;6.742;2023-02-15T02:35:47;102413.84;;;5.77;74.18
8699;BME280;4386;51.236;6.742;2023-02-15T02:36:57;102410.34;;;5.77;74.25
8699;BME280;4386;51.236;6.742;2023-02-15T02:38:03;102406.91;;;5.75;74.24
8699;BME280;4386;51.236;6.742;2023-02-15T02:39:20;102405.19;;;5.74;74.28
8699;BME280;4386;51.236;6.742;2023-02-15T02:40:30;102401.69;;;5.73;74.08
8699;BME280;4386;51.236;6.742;2023-02-15T02:41:43;102399.06;;;5.73;74.23
8699;BME280;4386;51.236;6.742;2023-02-15T02:42:57;102403.44;;;5.73;74.31
8699;BME280;4386;51.236;6.742;2023-02-15T02:44:13;102405.25;;;5.72;74.23
8699;BME280;4386;51.236;6.742;2023-02-15T02:45:33;102398.25;;;5.71;74.36
8699;BME280;4386;51.236;6.742;2023-02-15T02:46:39;102406.13;;;5.71;74.42
8699;BME280;4386;51.236;6.742;2023-02-15T02:47:48;102407.03;;;5.70;74.36
8699;BME280;4386;51.236;6.742;2023-02-15T02:48:52;102395.66;;;5.70;74.36
8699;BME280;4386;51.236;6.742;2023-02-15T02:49:58;102392.16;;;5.69;74.55
8699;BME280;4386;51.236;6.742;2023-02-15T02:51:01;102390.47;;;5.68;74.55
8699;BME280;4386;51.236;6.742;2023-02-15T02:52:06;102397.41;;;5.69;74.40
8699;BME280;4386;51.236;6.742;2023-02-15T02:53:09;102389.53;;;5.69;74.45
8699;BME280;4386;51.236;6.742;2023-02-15T02:54:12;102389.53;;;5.69;74.43
8699;BME280;4386;51.236;6.742;2023-02-15T02:55:18;102393.97;;;5.69;74.69
8699;BME280;4386;51.236;6.742;2023-02-15T02:56:26;102380.81;;;5.69;74.68
8699;BME280;4386;51.236;6.742;2023-02-15T02:57:31;102386.06;;;5.69;74.54
8699;BME280;4386;51.236;6.742;2023-02-15T02:58:40;102383.44;;;5.69;74.70
8699;BME280;4386;51.236;6.742;2023-02-15T02:59:46;102378.22;;;5.67;74.55
8699;BME280;4386;51.236;6.742;2023-02-15T03:00:52;102379.94;;;5.68;74.69
8699;BME280;4386;51.236;6.742;2023-02-15T03:02:00;102373.84;;;5.66;74.75
8699;BME280;4386;51.236;6.742;2023-02-15T03:03:06;102368.59;;;5.66;74.58
8699;BME280;4386;51.236;6.742;2023-02-15T03:04:15;102378.28;;;5.66;74.55
8699;BME280;4386;51.236;6.742;2023-02-15T03:05:20;102383.56;;;5.64;74.77
8699;BME280;4386;51.236;6.742;2023-02-15T03:06:25;102380.94;;;5.64;74.80
8699;BME280;4386;51.236;6.742;2023-02-15T03:07:31;102375.72;;;5.63;74.70
8699;BME280;4386;51.236;6.742;2023-02-15T03:08:47;102376.56;;;5.63;74.65
8699;BME280;4386;51.236;6.742;2023-02-15T03:09:53;102371.38;;;5.62;74.92
8699;BME280;4386;51.236;6.742;2023-02-15T03:11:06;102369.66;;;5.61;74.98
8699;BME280;4386;51.236;6.742;2023-02-15T03:12:11;102371.41;;;5.60;74.66
8699;BME280;4386;51.236;6.742;2023-02-15T03:13:14;102367.03;;;5.61;74.92
8699;BME280;4386;51.236;6.742;2023-02-15T03:14:18;102364.44;;;5.59;74.67
8699;BME280;4386;51.236;6.742;2023-02-15T03:15:23;102365.28;;;5.60;74.99
8699;BME280;4386;51.236;6.742;2023-02-15T03:16:27;102374.09;;;5.59;74.87
8699;BME280;4386;51.236;6.742;2023-02-15T03:17:32;102368.78;;;5.60;74.92
8699;BME280;4386;51.236;6.742;2023-02-15T03:18:37;102368.84;;;5.59;74.98
8699;BME280;4386;51.236;6.742;2023-02-15T03:19:43;102365.34;;;5.58;75.06
8699;BME280;4386;51.236;6.742;2023-02-15T03:20:49;102363.63;;;5.57;74.93
8699;BME280;4386;51.236;6.742;2023-02-15T03:21:56;102364.53;;;5.56;74.90
8699;BME280;4386;51.236;6.742;2023-02-15T03:23:09;102368.06;;;5.55;75.01
8699;BME280;4386;51.236;6.742;2023-02-15T03:24:14;102368.06;;;5.55;75.20
8699;BME280;4386;51.236;6.742;2023-02-15T03:25:21;102366.34;;;5.54;75.00
8699;BME280;4386;51.236;6.742;2023-02-15T03:26:24;102366.34;;;5.54;74.81
8699;BME280;4386;51.236;6.742;2023-02-15T03:27:33;102370.75;;;5.54;75.13
8699;BME280;4386;51.236;6.742;2023-02-15T03:28:49;102375.13;;;5.53;74.88
8699;BME280;4386;51.236;6.742;2023-02-15T03:29:55;102369.88;;;5.53;74.90
8699;BME280;4386;51.236;6.742;2023-02-15T03:31:01;102368.19;;;5.52;75.15
8699;BME280;4386;51.236;6.742;2023-02-15T03:32:15;102363.81;;;5.51;74.89
8699;BME280;4386;51.236;6.742;2023-02-15T03:33:28;102369.97;;;5.50;74.97
8699;BME280;4386;51.236;6.742;2023-02-15T03:34:33;102363.84;;;5.50;74.96
8699;BME280;4386;51.236;6.742;2023-02-15T03:35:49;102372.66;;;5.49;75.22
8699;BME280;4386;51.236;6.742;2023-02-15T03:36:58;102371.78;;;5.48;75.06
8699;BME280;4386;51.236;6.742;2023-02-15T03:38:01;102373.63;;;5.46;75.28
8699;BME280;4386;51.236;6.742;2023-02-15T03:39:17;102374.47;;;5.47;75.42
8699;BME280;4386;51.236;6.742;2023-02-15T03:40:26;102366.63;;;5.45;75.18
8699;BME280;4386;51.236;6.742;2023-02-15T03:41:57;102373.66;;;5.45;75.27
8699;BME280;4386;51.236;6.742;2023-02-15T03:43:13;102375.41;;;5.44;75.20
8699;BME280;4386;51.236;6.742;2023-02-15T03:44:29;102376.31;;;5.43;75.25
8699;BME280;4386;51.236;6.742;2023-02-15T03:45:46;102377.25;;;5.42;75.23
8699;BME280;4386;51.236;6.742;2023-02-15T03:47:00;102373.78;;;5.40;75.14
8699;BME280;4386;51.236;6.742;2023-02-15T03:48:17;102373.78;;;5.40;75.39
8699;BME280;4386;51.236;6.742;2023-02-15T03:49:24;102360.69;;;5.39;75.23
8699;BME280;4386;51.236;6.742;2023-02-15T03:50:33;102366.81;;;5.39;75.26
8699;BME280;4386;51.236;6.742;2023-02-15T03:51:59;102361.56;;;5.39;75.26
8699;BME280;4386;51.236;6.742;2023-02-15T03:53:06;102364.19;;;5.39;75.13
8699;BME280;4386;51.236;6.742;2023-02-15T03:54:11;102357.22;;;5.38;75.21
8699;BME280;4386;51.236;6.742;2023-02-15T03:55:15;102360.69;;;5.39;75.32
8699;BME280;4386;51.236;6.742;2023-02-15T03:56:17;102352.84;;;5.37;75.29
8699;BME280;4386;51.236;6.742;2023-02-15T03:57:21;102357.22;;;5.38;75.34
8699;BME280;4386;51.236;6.742;2023-02-15T03:58:42;102359.84;;;5.38;75.40
8699;BME280;4386;51.236;6.742;2023-02-15T04:00:05;102358.97;;;5.38;75.11
8699;BME280;4386;51.236;6.742;2023-02-15T04:01:34;102358.16;;;5.36;75.23
8699;BME280;4386;51.236;6.742;2023-02-15T04:03:22;102363.47;;;5.34;75.49
8699;BME280;4386;51.236;6.742;2023-02-15T04:04:35;102361.75;;;5.33;75.41
8699;BME280;4386;51.236;6.742;2023-02-15T04:05:45;102362.59;;;5.34;75.17
8699;BME280;4386;51.236;6.742;2023-02-15T04:06:47;102351.28;;;5.32;75.43
8699;BME280;4386;51.236;6.742;2023-02-15T04:07:49;102358.28;;;5.31;75.23
8699;BME280;4386;51.236;6.742;2023-02-15T04:09:01;102360.91;;;5.31;75.54
8699;BME280;4386;51.236;6.742;2023-02-15T04:10:29;102359.19;;;5.30;75.24
8699;BME280;4386;51.236;6.742;2023-02-15T04:11:49;102363.63;;;5.30;75.46
8699;BME280;4386;51.236;6.742;2023-02-15T04:12:51;102357.50;;;5.29;75.29
8699;BME280;4386;51.236;6.742;2023-02-15T04:16:09;102366.25;;;5.30;75.23
8699;BME280;4386;51.236;6.742;2023-02-15T04:17:12;102361.00;;;5.28;75.27
8699;BME280;4386;51.236;6.742;2023-02-15T04:18:15;102364.50;;;5.29;75.47
8699;BME280;4386;51.236;6.742;2023-02-15T04:19:16;102360.22;;;5.26;75.42
8699;BME280;4386;51.236;6.742;2023-02-15T04:20:37;102362.84;;;5.26;75.60
8699;BME280;4386;51.236;6.742;2023-02-15T04:22:01;102368.97;;;5.27;75.52
8699;BME280;4386;51.236;6.742;2023-02-15T04:23:31;102369.00;;;5.25;75.41
8699;BME280;4386;51.236;6.742;2023-02-15T04:24:52;102362.88;;;5.24;75.42
8699;BME280;4386;51.236;6.742;2023-02-15T04:26:14;102358.50;;;5.23;75.43
8699;BME280;4386;51.236;6.742;2023-02-15T04:27:16;102354.19;;;5.22;75.35
8699;BME280;4386;51.236;6.742;2023-02-15T04:28:18;102355.06;;;5.23;75.70
8699;BME280;4386;51.236;6.742;2023-02-15T04:29:22;102358.56;;;5.22;75.66
8699;BME280;4386;51.236;6.742;2023-02-15T04:30:25;102359.47;;;5.21;75.45
8699;BME280;4386;51.236;6.742;2023-02-15T04:31:27;102362.09;;;5.21;75.73
8699;BME280;4386;51.236;6.742;2023-02-15T04:32:29;102357.78;;;5.20;75.43
8699;BME280;4386;51.236;6.742;2023-02-15T04:33:33;102363.03;;;5.20;75.58
8699;BME280;4386;51.236;6.742;2023-02-15T04:34:37;102358.59;;;5.20;75.75
8699;BME280;4386;51.236;6.742;2023-02-15T04:35:39;102362.09;;;5.21;75.58
8699;BME280;4386;51.236;6.742;2023-02-15T04:36:42;102361.22;;;5.20;75.79
8699;BME280;4386;51.236;6.742;2023-02-15T04:37:44;102363.91;;;5.19;75.57
8699;BME280;4386;51.236;6.742;2023-02-15T04:38:47;102356.03;;;5.19;75.71
8699;BME280;4386;51.236;6.742;2023-02-15T04:39:49;102359.53;;;5.19;75.70
8699;BME280;4386;51.236;6.742;2023-02-15T04:40:52;102361.28;;;5.19;75.62
8699;BME280;4386;51.236;6.742;2023-02-15T04:41:54;102360.41;;;5.20;75.70
8699;BME280;4386;51.236;6.742;2023-02-15T04:42:56;102352.50;;;5.20;75.72
8699;BME280;4386;51.236;6.742;2023-02-15T04:43:59;102356.06;;;5.17;75.79
8699;BME280;4386;51.236;6.742;2023-02-15T04:45:11;102349.06;;;5.18;75.90
8699;BME280;4386;51.236;6.742;2023-02-15T04:46:24;102357.88;;;5.17;75.76
8699;BME280;4386;51.236;6.742;2023-02-15T04:47:35;102362.25;;;5.16;75.70
8699;BME280;4386;51.236;6.742;2023-02-15T04:48:39;102357.00;;;5.16;75.51
8699;BME280;4386;51.236;6.742;2023-02-15T04:49:40;102352.63;;;5.15;75.84
8699;BME280;4386;51.236;6.742;2023-02-15T04:50:43;102345.66;;;5.14;75.75
8699;BME280;4386;51.236;6.742;2023-02-15T04:51:45;102345.66;;;5.14;75.64
8699;BME280;4386;51.236;6.742;2023-02-15T04:52:48;102353.59;;;5.13;75.63
8699;BME280;4386;51.236;6.742;2023-02-15T04:53:49;102343.09;;;5.13;75.66
8699;BME280;4386;51.236;6.742;2023-02-15T04:54:53;102356.22;;;5.13;75.96
8699;BME280;4386;51.236;6.742;2023-02-15T04:55:55;102348.34;;;5.13;75.84
8699;BME280;4386;51.236;6.742;2023-02-15T04:57:02;102353.59;;;5.13;75.70
8699;BME280;4386;51.236;6.742;2023-02-15T04:58:04;102353.53;;;5.14;75.59
8699;BME280;4386;51.236;6.742;2023-02-15T04:59:16;102350.03;;;5.14;75.54
8699;BME280;4386;51.236;6.742;2023-02-15T05:00:18;102357.03;;;5.15;75.75
8699;BME280;4386;51.236;6.742;2023-02-15T05:01:26;102350.00;;;5.15;75.63
8699;BME280;4386;51.236;6.742;2023-02-15T05:02:28;102344.78;;;5.14;75.36
8699;BME280;4386;51.236;6.742;2023-02-15T05:03:30;102346.56;;;5.13;75.54
8699;BME280;4386;51.236;6.742;2023-02-15T05:04:33;102344.78;;;5.14;75.66
8699;BME280;4386;51.236;6.742;2023-02-15T05:05:36;102343.94;;;5.13;75.68
8699;BME280;4386;51.236;6.742;2023-02-15T05:06:37;102344.78;;;5.14;75.54
8699;BME280;4386;51.236;6.742;2023-02-15T05:07:40;102339.59;;;5.12;75.58
8699;BME280;4386;51.236;6.742;2023-02-15T05:08:41;102338.72;;;5.12;75.75
8699;BME280;4386;51.236;6.742;2023-02-15T05:09:44;102339.63;;;5.11;75.68
8699;BME280;4386;51.236;6.742;2023-02-15T05:10:47;102329.09;;;5.11;75.87
8699;BME280;4386;51.236;6.742;2023-02-15T05:11:50;102341.44;;;5.09;75.87
8699;BME280;4386;51.236;6.742;2023-02-15T05:12:51;102344.97;;;5.08;75.79
8699;BME280;4386;51.236;6.742;2023-02-15T05:13:54;102338.84;;;5.07;75.81
8699;BME280;4386;51.236;6.742;2023-02-15T05:14:55;102334.47;;;5.08;75.80
8699;BME280;4386;51.236;6.742;2023-02-15T05:15:58;102338.00;;;5.07;75.94
8699;BME280;4386;51.236;6.742;2023-02-15T05:16:59;102338.00;;;5.07;75.63
8699;BME280;4386;51.236;6.742;2023-02-15T05:18:04;102337.16;;;5.06;75.71
8699;BME280;4386;51.236;6.742;2023-02-15T05:19:08;102334.56;;;5.05;75.97
8699;BME280;4386;51.236;6.742;2023-02-15T05:20:22;102338.09;;;5.04;75.72
8699;BME280;4386;51.236;6.742;2023-02-15T05:21:24;102335.50;;;5.02;76.08
8699;BME280;4386;51.236;6.742;2023-02-15T05:22:27;102332.88;;;5.02;75.80
8699;BME280;4386;51.236;6.742;2023-02-15T05:23:28;102325.00;;;5.02;75.86
8699;BME280;4386;51.236;6.742;2023-02-15T05:24:31;102329.38;;;5.02;75.90
8699;BME280;4386;51.236;6.742;2023-02-15T05:25:51;102330.25;;;5.02;75.82
8699;BME280;4386;51.236;6.742;2023-02-15T05:27:12;102326.81;;;5.00;75.77
8699;BME280;4386;51.236;6.742;2023-02-15T05:28:32;102328.59;;;5.00;75.98
8699;BME280;4386;51.236;6.742;2023-02-15T05:29:35;102328.59;;;5.00;75.75
8699;BME280;4386;51.236;6.742;2023-02-15T05:30:36;102329.47;;;4.99;75.80
8699;BME280;4386;51.236;6.742;2023-02-15T05:31:43;102327.72;;;4.99;75.94
8699;BME280;4386;51.236;6.742;2023-02-15T05:32:49;102325.13;;;4.98;75.68
8699;BME280;4386;51.236;6.742;2023-02-15T05:33:58;102322.50;;;4.98;75.79
8699;BME280;4386;51.236;6.742;2023-02-15T05:35:04;102324.28;;;4.97;75.71
8699;BME280;4386;51.236;6.742;2023-02-15T05:36:18;102328.63;;;4.98;75.83
8699;BME280;4386;51.236;6.742;2023-02-15T05:37:20;102327.75;;;4.98;75.87
8699;BME280;4386;51.236;6.742;2023-02-15T05:38:22;102328.69;;;4.97;75.82
8699;BME280;4386;51.236;6.742;2023-02-15T05:39:24;102326.91;;;4.97;75.82
8699;BME280;4386;51.236;6.742;2023-02-15T05:40:26;102322.50;;;4.98;75.70
8699;BME280;4386;51.236;6.742;2023-02-15T05:41:28;102321.66;;;4.97;75.75
8699;BME280;4386;51.236;6.742;2023-02-15T05:42:30;102318.16;;;4.97;75.79
8699;BME280;4386;51.236;6.742;2023-02-15T05:43:33;102320.78;;;4.97;75.61
8699;BME280;4386;51.236;6.742;2023-02-15T05:44:36;102325.19;;;4.96;75.95
8699;BME280;4386;51.236;6.742;2023-02-15T05:45:39;102322.59;;;4.95;75.98
8699;BME280;4386;51.236;6.742;2023-02-15T05:46:41;102319.03;;;4.97;75.83
8699;BME280;4386;51.236;6.742;2023-02-15T05:47:48;102321.69;;;4.96;75.79
8699;BME280;4386;51.236;6.742;2023-02-15T05:48:50;102313.81;;;4.96;76.02
8699;BME280;4386;51.236;6.742;2023-02-15T05:49:52;102314.69;;;4.96;75.85
8699;BME280;4386;51.236;6.742;2023-02-15T05:50:57;102313.00;;;4.94;75.81
8699;BME280;4386;51.236;6.742;2023-02-15T05:52:02;102318.25;;;4.94;75.72
8699;BME280;4386;51.236;6.742;2023-02-15T05:53:04;102308.66;;;4.93;75.92
8699;BME280;4386;51.236;6.742;2023-02-15T05:54:06;102319.16;;;4.93;75.82
8699;BME280;4386;51.236;6.742;2023-02-15T05:55:08;102311.31;;;4.91;75.87
8699;BME280;4386;51.236;6.742;2023-02-15T05:56:20;102312.16;;;4.92;75.91
8699;BME280;4386;51.236;6.742;2023-02-15T05:57:22;102306.06;;;4.91;75.81
8699;BME280;4386;51.236;6.742;2023-02-15T05:58:25;102308.75;;;4.90;76.01
8699;BME280;4386;51.236;6.742;2023-02-15T05:59:27;102321.00;;;4.89;75.89
8699;BME280;4386;51.236;6.742;2023-02-15T06:00:30;102314.88;;;4.89;75.77
8699;BME280;4386;51.236;6.742;2023-02-15T06:01:32;102307.88;;;4.89;75.93
8699;BME280;4386;51.236;6.742;2023-02-15T06:02:36;102317.50;;;4.89;76.05
8699;BME280;4386;51.236;6.742;2023-02-15T06:03:38;102321.03;;;4.88;75.76
8699;BME280;4386;51.236;6.742;2023-02-15T06:04:45;102317.50;;;4.89;76.06
8699;BME280;4386;51.236;6.742;2023-02-15T06:05:46;102315.78;;;4.88;76.03
8699;BME280;4386;51.236;6.742;2023-02-15T06:06:49;102321.03;;;4.88;75.89
8699;BME280;4386;51.236;6.742;2023-02-15T06:07:59;102318.41;;;4.88;76.11
8699;BME280;4386;51.236;6.742;2023-02-15T06:09:13;102321.03;;;4.88;75.79
8699;BME280;4386;51.236;6.742;2023-02-15T06:10:15;102326.28;;;4.88;75.92